Ride Results

Kiwarrak Gold Cup (05-08-2017)
Ride distance: 80.0 km

Outcomes - Kiwarrak Gold Cup (05-08-2017)
Division No. of Entries Retired / DNE Completed Withdrawn Ineligible V/O Percentage Completed
HW 5 - 3 - 1 1 60.00%
MW 13 - 11 - - 2 84.62%
LW 7 - 7 - - - 100.00%
JN 2 - 1 - - 1 50.00%
Totals 27 - 22 - 1 4 81.48%
Results - Kiwarrak Gold Cup (05-08-2017)
No. Rider Horse Place Time Leg Speeds Total
Km/Hr
H/R bpm
Heavyweight
35 Nicole Smith Malvern Harmony 1 6:25:00 12.9, 11.9 12.47 37, 42, 47 (Avg:44)
42 Phil Coleman Rainbows Reach Dark N Stormy 2 (BC) 7:30:00 11.0, 10.3 10.67 34, 42, 47 (Avg:44)
44 Ian Dreghorn Ausden Nile Prins 3 8:55:00 10.6, 7.7 8.97 38, 46, 48 (Avg:47)
34 Con Bouzianis Conderosa Zaheera Disqualified L2 0:00:00 12.8, 17.6 - 35, 45, 44 (Avg:44)
23 Allan Caslick A'Landell Kazade Metabolics P/R 0:00:00 - - -
Middleweight
39 Gil Stevenson Thalaba Touch of Gold 1 (BC) 4:55:00 17.2, 15.3 16.27 36, 42, 45 (Avg:43)
24 Sharon Foster Fortaleza Mystical Silver 2 5:18:00 12.1, 19.8 15.09 37, 48, 51 (Avg:49)
40 Emily Streckfuss Webbs Creek Starlight 3 5:23:00 12.8, 17.6 14.86 29, 48, 55 (Avg:51)
43 Darryl King James Bonn 4 5:33:00 12.8, 16.4 14.41 35, 49, 51 (Avg:50)
11 Debbie Pevy Burren-Dah Walter 5 5:59:00 12.8, 13.9 13.37 36, 45, 57 (Avg:51)
28 Gavin Peacock Eclipse 6 6:35:00 13.2, 11.2 12.15 34, 47, 48 (Avg:47)
33 Ashley Thomas Glenelen Park Phoenix 6 6:35:00 11.9, 12.3 12.15 39, 44, 60 (Avg:52)
27 Nicolle Brown Prince 8 7:30:00 10.6, 10.6 10.67 36, 46, 44 (Avg:45)
21 Carol Major Anijoa Anna 8 7:30:00 11.0, 10.3 10.67 31, 40, 44 (Avg:42)
12 Tomeika Bond-Pevy Mr Bo-Jangles 10 8:04:00 10.5, 9.3 9.92 35, 42, 47 (Avg:44)
30 Tom Bouzianis Conderosa Assim 10 8:04:00 10.5, 9.3 9.92 36, 43, 49 (Avg:46)
31 Lyall Cameron Hazeldean Halim Heart Rate L2 0:00:00 11.9, 12.7 - 38, 50, 71 (Avg:60)
26 Michele Ladmore Azale Aladdin Metabolics L1 0:00:00 12.8 - 39, 54 (Avg:54)
Lightweight
29 Victoria Bice The Byzantine Diamonds 1 (BC) 5:23:00 14.3, 15.3 14.86 46, 44, 49 (Avg:46)
38 Zoe Locke Graciella 2 6:03:00 16.4, 11.0 13.22 30, 39, 43 (Avg:41)
37 Amanda Myers Grattai Station Traveller 3 6:21:00 13.3, 11.9 12.60 47, 45, 49 (Avg:47)
67 Shannen Thorsby Newbury Shaklan's Impact 4 6:25:00 12.8, 12.1 12.47 36, 42, 51 (Avg:46)
15 Miki Bell Kalkadoon Kid 5 6:43:00 11.8, 11.9 11.91 41, 42, 49 (Avg:45)
16 Clare Fleming Flemingo SS 5 6:43:00 11.8, 11.9 11.91 37, 43, 51 (Avg:47)
41 Ros Ryan Rainbows Reach Scout 7 7:30:00 11.0, 10.3 10.67 30, 36, 42 (Avg:39)
Junior
36 Gabrielle Worth Evening Star 1 (BC) 6:20:00 12.9, 12.3 12.63 29, 39, 42 (Avg:40)
25 Isabel Foster Briallyn Alimah Metabolics L1 (Rep) 0:00:00 17.5 - 33, 42, 36 (Avg:39)